Flight Track Log - Related Links

Times and Time Zones

All times are in EST time to prevent confusion due to time zone crossing. See the FIN666 flight status page for this flight to view local times or setup timezone preferences in your user account.

Time Position Orientation Groundspeed Altitude Reporting Facility
EST Latitude Longitude Course Direction KTS MPH feet Rate Location/Type
Thu 07:19:00 AM 55.9251 13.2931 49° Northeast  Level Estimated
Thu 07:20:00 AM 56.0014 13.4539 50° Northeast  Level Estimated
Thu 07:21:00 AM 56.0774 13.6154 50° Northeast  Level Estimated
Thu 07:22:00 AM 56.1533 13.7776 50° Northeast  Level Estimated
Thu 07:23:00 AM 56.2301 13.9428 50° Northeast  Level Estimated
Thu 07:24:00 AM 56.3066 14.1086 50° Northeast  Level Estimated
Thu 07:25:00 AM 56.3829 14.2752 50° Northeast  Level Estimated
Thu 07:26:00 AM 56.4590 14.4424 50° Northeast  Level Estimated
Thu 07:27:00 AM 56.5349 14.6102 51° Northeast  Level Estimated
Thu 07:28:00 AM 56.6105 14.7788 51° Northeast  Level Estimated
Thu 07:29:00 AM 56.6860 14.9480 51° Northeast  Level Estimated
Thu 07:30:00 AM 56.7612 15.1179 51° Northeast  Level Estimated
Thu 07:31:00 AM 56.8361 15.2884 51° Northeast  Level Estimated
Thu 07:32:00 AM 56.9108 15.4597 51° Northeast  Level Estimated
Thu 07:33:00 AM 56.9853 15.6316 51° Northeast  Level Estimated
Thu 07:34:00 AM 57.0596 15.8043 52° Northeast  Level Estimated
Thu 07:35:00 AM 57.1336 15.9776 52° Northeast  Level Estimated
Thu 07:36:00 AM 57.2074 16.1516 52° Northeast  Level Estimated
Thu 07:37:00 AM 57.2809 16.3263 52° Northeast  Level Estimated
Thu 07:38:00 AM 57.3542 16.5017 52° Northeast  Level Estimated
Thu 07:39:00 AM 57.4272 16.6778 52° Northeast  Level Estimated
Thu 07:40:00 AM 57.5000 16.8547 52° Northeast  Level Estimated
Thu 07:41:00 AM 57.5726 17.0322 53° Northeast  Level Estimated
Thu 07:42:00 AM 57.6449 17.2104 53° Northeast  Level Estimated
Thu 07:43:00 AM 57.7169 17.3893 53° Northeast  Level Estimated
Thu 07:44:00 AM 57.7887 17.5690 53° Northeast  Level Estimated
Thu 07:45:00 AM 57.8602 17.7493 53° Northeast  Level Estimated
Thu 07:46:00 AM 57.9315 17.9304 53° Northeast  Level Estimated
Thu 07:47:00 AM 58.0025 18.1122 54° Northeast  Level Estimated
Thu 07:48:00 AM 58.0733 18.2948 54° Northeast  Level Estimated
Thu 07:49:00 AM 58.1438 18.4780 54° Northeast  Level Estimated
Thu 07:50:00 AM 58.2141 18.6620 54° Northeast  Level Estimated
Thu 07:51:00 AM 58.2840 18.8467 54° Northeast  Level Estimated
Thu 07:52:00 AM 58.3537 19.0321 54° Northeast  Level Estimated
Thu 07:53:00 AM 58.4232 19.2183 54° Northeast  Level Estimated
Thu 07:54:00 AM 58.4923 19.4052 55° Northeast  Level Estimated
Thu 07:55:00 AM 58.5612 19.5928 55° Northeast  Level Estimated
Thu 07:56:00 AM 58.6298 19.7812 55° Northeast  Level Estimated
Thu 07:57:00 AM 58.6982 19.9703 55° Northeast  Level Estimated
Thu 07:58:00 AM 58.7662 20.1601 55° Northeast  Level Estimated
Thu 07:59:00 AM 58.8340 20.3507 55° Northeast  Level Estimated
Thu 08:00:00 AM 58.9015 20.5421 56° Northeast  Level Estimated
Thu 08:01:00 AM 58.9687 20.7341 56° Northeast  Level Estimated
Thu 08:02:00 AM 59.0357 20.9270 56° Northeast  Level Estimated
Thu 08:03:00 AM 59.1023 21.1206 56° Northeast  Level Estimated
Thu 08:04:00 AM 59.1687 21.3149 56° Northeast  Level Estimated
Thu 08:05:00 AM 59.2347 21.5100 56° Northeast  Level Estimated
Thu 08:06:00 AM 59.3005 21.7059 57° Northeast  Level Estimated
Thu 08:07:00 AM 59.3660 21.9025 57° Northeast  Level Estimated
Thu 08:08:00 AM 59.4311 22.0998 57° Northeast  Level Estimated
Thu 08:09:00 AM 59.4960 22.2980 57° Northeast  Level Estimated
Thu 08:10:00 AM 59.5606 22.4968 57° Northeast  Level Estimated
Thu 08:11:00 AM 59.6249 22.6965 57° Northeast  Level Estimated
Thu 08:12:00 AM 59.6889 22.8969 58° Northeast  Level Estimated
Thu 08:13:00 AM 59.7525 23.0981 58° Northeast  Level Estimated
Thu 08:14:00 AM 59.8159 23.3000 58° Northeast  Level Estimated
Thu 08:15:00 AM 59.8789 23.5027 58° Northeast  Level Estimated
Thu 08:16:00 AM 59.9417 23.7062 58° Northeast  Level Estimated
Thu 08:17:00 AM 60.0041 23.9105 58° Northeast  Level Estimated
Thu 08:18:00 AM 60.0662 24.1155 59° Northeast  Level Estimated
Thu 08:19:00 AM 60.1280 24.3213 59° Northeast  Level Estimated
Thu 08:20:00 AM 60.1894 24.5278 59° Northeast  Level Estimated
Thu 08:21:00 AM 60.2506 24.7352 59° Northeast  Level Estimated
Thu 08:22:00 AM 60.3114 24.9433 59° Northeast  Level Estimated
Thu 08:23:00 AM 60.3172 24.9633 60° Northeast  Level Estimated
Thu 08:24:00 AM 60.3172 24.9633 37° Northeast  Level Estimated
Thu 08:25:00 AM 60.3172 24.9633 37° Northeast  Level Estimated
Thu 08:26:00 AM 60.3172 24.9633 37° Northeast  Level Estimated
Thu 08:27:00 AM 60.3172 24.9633 37° Northeast  Level Estimated
Thu 08:28:00 AM 60.3172 24.9633 37° Northeast  Level Estimated
Thu 08:29:00 AM 60.3172 24.9633 37° Northeast  Level Estimated
Thu 08:30:00 AM 60.3172 24.9633 37° Northeast  Level Estimated
Thu 08:31:00 AM 60.3172 24.9633 37° Northeast  Level Estimated
Thu 08:32:00 AM 60.3172 24.9633 37° Northeast  Level Estimated

Login

Don't have an account? Register now (free) for customized features, flight alerts, and more!